sensor_id;sensor_type;location;lat;lon;timestamp;pressure;altitude;pressure_sealevel;temperature;humidity
13241;BME280;6687;47.790;7.322;2024-01-15T06:19:31;98154.66;;;2.19;83.59
13241;BME280;6687;47.790;7.322;2024-01-15T06:21:57;98149.59;;;2.23;83.02
13241;BME280;6687;47.790;7.322;2024-01-15T06:24:24;98149.03;;;2.36;82.75
13241;BME280;6687;47.790;7.322;2024-01-15T06:26:51;98149.88;;;2.35;82.30
13241;BME280;6687;47.790;7.322;2024-01-15T06:29:18;98155.81;;;2.34;82.45
13241;BME280;6687;47.790;7.322;2024-01-15T06:31:44;98149.84;;;2.33;81.76
13241;BME280;6687;47.790;7.322;2024-01-15T06:34:11;98156.69;;;2.36;81.99
13241;BME280;6687;47.790;7.322;2024-01-15T06:36:39;98165.25;;;2.38;82.08
13241;BME280;6687;47.790;7.322;2024-01-15T06:39:06;98152.44;;;2.36;81.83
13241;BME280;6687;47.790;7.322;2024-01-15T06:41:33;98147.16;;;2.29;81.98
13241;BME280;6687;47.790;7.322;2024-01-15T06:43:59;98122.00;;;2.47;81.71
13241;BME280;6687;47.790;7.322;2024-01-15T06:46:26;98101.59;;;2.50;80.58
13241;BME280;6687;47.790;7.322;2024-01-15T06:48:53;98105.16;;;2.57;80.15
13241;BME280;6687;47.790;7.322;2024-01-15T06:51:19;98099.91;;;2.49;80.21
13241;BME280;6687;47.790;7.322;2024-01-15T06:53:48;98102.22;;;2.37;80.69
13241;BME280;6687;47.790;7.322;2024-01-15T06:56:14;98110.13;;;2.49;80.63
13241;BME280;6687;47.790;7.322;2024-01-15T06:58:41;98105.78;;;2.45;80.27
13241;BME280;6687;47.790;7.322;2024-01-15T07:01:07;98102.56;;;2.55;79.59
13241;BME280;6687;47.790;7.322;2024-01-15T07:03:34;98102.50;;;2.52;79.86
13241;BME280;6687;47.790;7.322;2024-01-15T07:06:01;98099.25;;;2.59;79.16
13241;BME280;6687;47.790;7.322;2024-01-15T07:08:28;98098.34;;;2.57;78.50
13241;BME280;6687;47.790;7.322;2024-01-15T07:10:56;98105.91;;;2.51;79.24
13241;BME280;6687;47.790;7.322;2024-01-15T07:13:23;98102.50;;;2.52;79.04
13241;BME280;6687;47.790;7.322;2024-01-15T07:15:49;98103.09;;;2.39;79.60
13241;BME280;6687;47.790;7.322;2024-01-15T07:18:16;98110.66;;;2.33;80.68
13241;BME280;6687;47.790;7.322;2024-01-15T07:20:43;98109.06;;;2.39;80.42
13241;BME280;6687;47.790;7.322;2024-01-15T07:23:10;98117.66;;;2.43;80.10
13241;BME280;6687;47.790;7.322;2024-01-15T07:25:37;98117.63;;;2.42;80.48
13241;BME280;6687;47.790;7.322;2024-01-15T07:28:05;98120.22;;;2.45;80.14
13241;BME280;6687;47.790;7.322;2024-01-15T07:30:32;98119.00;;;2.26;80.91
13241;BME280;6687;47.790;7.322;2024-01-15T07:32:59;98125.22;;;2.37;80.53
13241;BME280;6687;47.790;7.322;2024-01-15T07:35:26;98125.09;;;2.32;80.94
13241;BME280;6687;47.790;7.322;2024-01-15T07:37:52;98121.13;;;2.45;80.70
13241;BME280;6687;47.790;7.322;2024-01-15T07:40:19;98128.56;;;2.34;80.68
13241;BME280;6687;47.790;7.322;2024-01-15T07:42:46;98126.03;;;2.36;80.57
13241;BME280;6687;47.790;7.322;2024-01-15T07:45:14;98122.69;;;2.40;80.91
13241;BME280;6687;47.790;7.322;2024-01-15T07:47:41;98120.31;;;2.48;80.18
13241;BME280;6687;47.790;7.322;2024-01-15T07:50:08;98115.00;;;2.38;80.77
13241;BME280;6687;47.790;7.322;2024-01-15T07:52:34;98112.59;;;2.46;79.98
13241;BME280;6687;47.790;7.322;2024-01-15T07:55:01;98109.16;;;2.44;80.12
13241;BME280;6687;47.790;7.322;2024-01-15T07:57:29;98116.63;;;2.33;80.66
13241;BME280;6687;47.790;7.322;2024-01-15T07:59:55;98113.13;;;2.30;80.85
13241;BME280;6687;47.790;7.322;2024-01-15T08:02:23;98103.22;;;2.04;81.04
13241;BME280;6687;47.790;7.322;2024-01-15T08:04:50;98116.88;;;2.06;81.52
13241;BME280;6687;47.790;7.322;2024-01-15T08:07:17;98122.97;;;2.13;81.52
13241;BME280;6687;47.790;7.322;2024-01-15T08:09:44;98120.53;;;2.17;81.75
13241;BME280;6687;47.790;7.322;2024-01-15T08:12:13;98119.06;;;2.29;81.82
13241;BME280;6687;47.790;7.322;2024-01-15T08:14:39;98119.81;;;2.23;81.78
13241;BME280;6687;47.790;7.322;2024-01-15T08:17:06;98108.72;;;2.23;81.61
13241;BME280;6687;47.790;7.322;2024-01-15T08:19:34;98107.03;;;2.25;81.51
13241;BME280;6687;47.790;7.322;2024-01-15T08:22:01;98103.59;;;2.23;81.63
13241;BME280;6687;47.790;7.322;2024-01-15T08:24:28;98113.81;;;2.23;81.20
13241;BME280;6687;47.790;7.322;2024-01-15T08:26:54;98114.91;;;1.94;82.73
13241;BME280;6687;47.790;7.322;2024-01-15T08:29:21;98117.47;;;2.34;81.73
13241;BME280;6687;47.790;7.322;2024-01-15T08:31:50;98110.25;;;2.14;81.42
13241;BME280;6687;47.790;7.322;2024-01-15T08:34:16;98109.63;;;2.26;81.44
13241;BME280;6687;47.790;7.322;2024-01-15T08:36:44;98108.78;;;2.26;80.73
13241;BME280;6687;47.790;7.322;2024-01-15T08:39:11;98097.84;;;2.31;80.75
13241;BME280;6687;47.790;7.322;2024-01-15T08:41:38;98091.50;;;2.55;79.56
13241;BME280;6687;47.790;7.322;2024-01-15T08:44:04;98090.59;;;2.53;79.84
13241;BME280;6687;47.790;7.322;2024-01-15T08:46:31;98094.91;;;2.55;79.44
13241;BME280;6687;47.790;7.322;2024-01-15T08:48:58;98083.59;;;2.44;80.13
13241;BME280;6687;47.790;7.322;2024-01-15T08:51:24;98082.03;;;2.52;79.47
13241;BME280;6687;47.790;7.322;2024-01-15T08:53:53;98082.38;;;2.27;80.58
13241;BME280;6687;47.790;7.322;2024-01-15T08:56:19;98081.66;;;2.31;80.52
13241;BME280;6687;47.790;7.322;2024-01-15T08:58:46;98079.91;;;2.30;80.54
13241;BME280;6687;47.790;7.322;2024-01-15T09:01:13;98074.31;;;2.49;79.75
13241;BME280;6687;47.790;7.322;2024-01-15T09:03:40;98074.88;;;2.33;80.06
13241;BME280;6687;47.790;7.322;2024-01-15T09:06:07;98071.53;;;2.37;79.75
13241;BME280;6687;47.790;7.322;2024-01-15T09:08:34;98073.66;;;2.59;79.37
13241;BME280;6687;47.790;7.322;2024-01-15T09:11:03;98067.44;;;2.45;79.78
13241;BME280;6687;47.790;7.322;2024-01-15T09:13:30;98085.56;;;2.57;79.40
13241;BME280;6687;47.790;7.322;2024-01-15T09:15:56;98073.56;;;2.53;79.06
13241;BME280;6687;47.790;7.322;2024-01-15T09:18:23;98075.22;;;2.51;79.31
13241;BME280;6687;47.790;7.322;2024-01-15T09:20:50;98070.09;;;2.51;79.31
13241;BME280;6687;47.790;7.322;2024-01-15T09:23:16;98074.19;;;2.42;79.85
13241;BME280;6687;47.790;7.322;2024-01-15T09:25:43;98076.28;;;2.20;81.41
13241;BME280;6687;47.790;7.322;2024-01-15T09:28:11;98072.75;;;2.13;82.40
13241;BME280;6687;47.790;7.322;2024-01-15T09:30:38;98080.72;;;2.27;81.66
13241;BME280;6687;47.790;7.322;2024-01-15T09:33:04;98084.19;;;2.31;81.90
13241;BME280;6687;47.790;7.322;2024-01-15T09:35:31;98072.25;;;2.30;81.93
13241;BME280;6687;47.790;7.322;2024-01-15T09:37:58;98071.53;;;2.37;81.71
13241;BME280;6687;47.790;7.322;2024-01-15T09:40:30;98065.78;;;2.47;80.62
13241;BME280;6687;47.790;7.322;2024-01-15T09:42:57;98065.03;;;2.54;79.92
13241;BME280;6687;47.790;7.322;2024-01-15T09:45:26;98065.03;;;2.54;79.89
13241;BME280;6687;47.790;7.322;2024-01-15T09:47:53;98069.41;;;2.60;79.70
13241;BME280;6687;47.790;7.322;2024-01-15T09:50:20;98070.22;;;2.57;79.48
13241;BME280;6687;47.790;7.322;2024-01-15T09:52:47;98058.88;;;2.45;80.00
13241;BME280;6687;47.790;7.322;2024-01-15T09:55:15;98056.78;;;2.68;79.22
13241;BME280;6687;47.790;7.322;2024-01-15T09:57:44;98048.59;;;2.87;78.28
13241;BME280;6687;47.790;7.322;2024-01-15T10:00:11;98049.09;;;2.68;78.67
13241;BME280;6687;47.790;7.322;2024-01-15T10:02:40;98056.59;;;2.58;79.32
13241;BME280;6687;47.790;7.322;2024-01-15T10:05:07;98054.00;;;2.55;79.63
13241;BME280;6687;47.790;7.322;2024-01-15T10:07:35;98061.09;;;2.72;78.97
13241;BME280;6687;47.790;7.322;2024-01-15T10:10:02;98065.44;;;2.76;78.54
13241;BME280;6687;47.790;7.322;2024-01-15T10:12:29;98056.72;;;2.65;79.12
13241;BME280;6687;47.790;7.322;2024-01-15T10:14:56;98050.66;;;2.59;79.42
13241;BME280;6687;47.790;7.322;2024-01-15T10:17:24;98048.88;;;2.55;79.11
13241;BME280;6687;47.790;7.322;2024-01-15T10:19:54;98052.75;;;2.35;80.12
13241;BME280;6687;47.790;7.322;2024-01-15T10:22:21;98050.47;;;2.49;80.60
13241;BME280;6687;47.790;7.322;2024-01-15T10:24:48;98056.72;;;2.21;81.56
13241;BME280;6687;47.790;7.322;2024-01-15T10:27:15;98057.59;;;2.23;81.64
13241;BME280;6687;47.790;7.322;2024-01-15T10:29:42;98047.44;;;2.26;82.47
13241;BME280;6687;47.790;7.322;2024-01-15T10:32:09;98060.00;;;2.57;81.57
13241;BME280;6687;47.790;7.322;2024-01-15T10:34:37;98054.41;;;2.33;81.73
13241;BME280;6687;47.790;7.322;2024-01-15T10:37:08;98056.34;;;2.46;81.76
13241;BME280;6687;47.790;7.322;2024-01-15T10:39:35;98058.91;;;2.46;81.25
13241;BME280;6687;47.790;7.322;2024-01-15T10:42:03;98056.47;;;2.52;81.33
13241;BME280;6687;47.790;7.322;2024-01-15T10:44:29;98056.34;;;2.46;81.05
13241;BME280;6687;47.790;7.322;2024-01-15T10:46:57;98058.31;;;2.59;79.84
13241;BME280;6687;47.790;7.322;2024-01-15T10:49:24;98057.84;;;2.79;79.55
13241;BME280;6687;47.790;7.322;2024-01-15T10:51:52;98048.28;;;2.69;80.17
13241;BME280;6687;47.790;7.322;2024-01-15T10:54:21;98054.31;;;2.74;78.98
13241;BME280;6687;47.790;7.322;2024-01-15T10:56:50;98051.75;;;2.74;78.80
13241;BME280;6687;47.790;7.322;2024-01-15T10:59:20;98058.66;;;2.78;78.51
13241;BME280;6687;47.790;7.322;2024-01-15T11:01:48;98061.22;;;2.78;78.84
13241;BME280;6687;47.790;7.322;2024-01-15T11:04:16;98069.00;;;2.84;78.77
13241;BME280;6687;47.790;7.322;2024-01-15T11:06:44;98069.22;;;2.49;79.04
13241;BME280;6687;47.790;7.322;2024-01-15T11:09:12;98074.63;;;2.66;80.39
13241;BME280;6687;47.790;7.322;2024-01-15T11:11:44;98075.16;;;2.48;80.30
13241;BME280;6687;47.790;7.322;2024-01-15T11:14:34;98067.00;;;2.68;80.07
13241;BME280;6687;47.790;7.322;2024-01-15T11:17:01;98064.06;;;2.93;78.86
13241;BME280;6687;47.790;7.322;2024-01-15T11:19:36;98057.72;;;2.29;80.21
13241;BME280;6687;47.790;7.322;2024-01-15T11:22:03;98052.88;;;2.88;79.75
13241;BME280;6687;47.790;7.322;2024-01-15T11:24:35;98057.81;;;2.77;79.41
13241;BME280;6687;47.790;7.322;2024-01-15T11:27:04;98066.06;;;2.64;79.42
13241;BME280;6687;47.790;7.322;2024-01-15T11:29:33;98069.03;;;2.40;80.78
13241;BME280;6687;47.790;7.322;2024-01-15T11:32:02;98074.09;;;2.38;80.26
13241;BME280;6687;47.790;7.322;2024-01-15T11:34:55;98072.00;;;2.62;81.04
13241;BME280;6687;47.790;7.322;2024-01-15T11:37:24;98074.50;;;2.58;80.65
13241;BME280;6687;47.790;7.322;2024-01-15T11:39:52;98065.03;;;2.54;81.11
13241;BME280;6687;47.790;7.322;2024-01-15T11:42:21;98059.31;;;2.68;80.32
13241;BME280;6687;47.790;7.322;2024-01-15T11:44:48;98056.44;;;2.49;81.04
13241;BME280;6687;47.790;7.322;2024-01-15T11:47:15;98057.69;;;2.26;81.08
13241;BME280;6687;47.790;7.322;2024-01-15T11:50:00;98058.38;;;2.18;81.72
13241;BME280;6687;47.790;7.322;2024-01-15T11:52:32;98051.22;;;2.43;81.46
13241;BME280;6687;47.790;7.322;2024-01-15T11:55:11;98041.50;;;2.27;81.85
13241;BME280;6687;47.790;7.322;2024-01-15T11:57:45;98045.59;;;2.17;81.30
13241;BME280;6687;47.790;7.322;2024-01-15T12:00:13;98060.75;;;2.09;82.52
13241;BME280;6687;47.790;7.322;2024-01-15T12:02:41;98058.19;;;2.09;82.81
13241;BME280;6687;47.790;7.322;2024-01-15T12:05:08;98049.56;;;2.04;83.16
13241;BME280;6687;47.790;7.322;2024-01-15T12:07:35;98043.22;;;2.28;83.33
13241;BME280;6687;47.790;7.322;2024-01-15T12:10:02;98033.44;;;2.49;82.28
13241;BME280;6687;47.790;7.322;2024-01-15T12:12:37;98032.47;;;2.44;81.84
13241;BME280;6687;47.790;7.322;2024-01-15T12:15:07;98034.34;;;2.53;81.92
13241;BME280;6687;47.790;7.322;2024-01-15T12:17:34;98038.69;;;2.14;83.13
13241;BME280;6687;47.790;7.322;2024-01-15T12:20:02;98029.59;;;2.27;82.10
13241;BME280;6687;47.790;7.322;2024-01-15T12:22:29;98031.72;;;2.50;83.00
13241;BME280;6687;47.790;7.322;2024-01-15T12:24:55;98016.72;;;2.67;81.77
13241;BME280;6687;47.790;7.322;2024-01-15T12:27:23;98019.38;;;2.73;81.68
13241;BME280;6687;47.790;7.322;2024-01-15T12:29:50;98011.84;;;2.81;80.49
13241;BME280;6687;47.790;7.322;2024-01-15T12:32:18;98030.97;;;2.55;81.02
13241;BME280;6687;47.790;7.322;2024-01-15T12:34:45;98029.59;;;2.29;82.50
13241;BME280;6687;47.790;7.322;2024-01-15T12:37:12;98025.97;;;2.62;81.57
13241;BME280;6687;47.790;7.322;2024-01-15T12:39:39;98017.50;;;2.64;80.69
13241;BME280;6687;47.790;7.322;2024-01-15T12:42:09;98014.38;;;2.81;80.51
13241;BME280;6687;47.790;7.322;2024-01-15T12:44:35;98011.34;;;2.53;80.02
13241;BME280;6687;47.790;7.322;2024-01-15T12:47:03;98025.34;;;2.28;82.20
13241;BME280;6687;47.790;7.322;2024-01-15T12:49:32;98025.53;;;2.37;82.34
13241;BME280;6687;47.790;7.322;2024-01-15T12:51:59;98025.56;;;2.40;82.29
13241;BME280;6687;47.790;7.322;2024-01-15T12:54:26;98039.00;;;2.30;81.88
13241;BME280;6687;47.790;7.322;2024-01-15T12:56:53;98040.75;;;2.32;83.18
13241;BME280;6687;47.790;7.322;2024-01-15T12:59:19;98055.22;;;1.89;83.52
13241;BME280;6687;47.790;7.322;2024-01-15T13:01:46;98048.50;;;1.94;83.96
13241;BME280;6687;47.790;7.322;2024-01-15T13:04:21;98053.34;;;2.22;83.93
13241;BME280;6687;47.790;7.322;2024-01-15T13:06:50;98054.75;;;2.09;84.35
13241;BME280;6687;47.790;7.322;2024-01-15T13:09:17;98058.28;;;1.74;84.67
13241;BME280;6687;47.790;7.322;2024-01-15T13:11:44;98061.75;;;1.76;85.33
13241;BME280;6687;47.790;7.322;2024-01-15T13:14:11;98058.25;;;1.71;85.57
13241;BME280;6687;47.790;7.322;2024-01-15T13:16:39;98050.50;;;1.68;85.67
13241;BME280;6687;47.790;7.322;2024-01-15T13:19:07;98054.94;;;1.75;86.03
13241;BME280;6687;47.790;7.322;2024-01-15T13:21:36;98059.00;;;1.69;86.11
13241;BME280;6687;47.790;7.322;2024-01-15T13:24:04;98060.34;;;1.51;86.85
13241;BME280;6687;47.790;7.322;2024-01-15T13:26:31;98067.25;;;1.55;86.46
13241;BME280;6687;47.790;7.322;2024-01-15T13:28:59;98062.50;;;1.72;85.96
13241;BME280;6687;47.790;7.322;2024-01-15T13:31:26;98071.91;;;1.73;86.53
13241;BME280;6687;47.790;7.322;2024-01-15T13:33:52;98067.91;;;1.86;86.58
13241;BME280;6687;47.790;7.322;2024-01-15T13:36:20;98063.06;;;1.98;86.11
13241;BME280;6687;47.790;7.322;2024-01-15T13:38:48;98061.13;;;2.28;85.49
13241;BME280;6687;47.790;7.322;2024-01-15T13:41:17;98063.50;;;2.20;84.82
13241;BME280;6687;47.790;7.322;2024-01-15T13:43:44;98057.22;;;2.04;84.85
13241;BME280;6687;47.790;7.322;2024-01-15T13:46:14;98072.97;;;1.83;85.31
13241;BME280;6687;47.790;7.322;2024-01-15T13:48:42;98069.44;;;2.17;85.71
13241;BME280;6687;47.790;7.322;2024-01-15T13:51:09;98059.06;;;2.10;85.21
13241;BME280;6687;47.790;7.322;2024-01-15T13:53:37;98061.72;;;2.16;85.01
13241;BME280;6687;47.790;7.322;2024-01-15T13:56:05;98068.63;;;2.20;84.20
13241;BME280;6687;47.790;7.322;2024-01-15T13:58:34;98067.81;;;2.23;85.72
13241;BME280;6687;47.790;7.322;2024-01-15T14:01:01;98076.00;;;2.06;85.14
13241;BME280;6687;47.790;7.322;2024-01-15T14:03:29;98076.91;;;2.08;85.84
13241;BME280;6687;47.790;7.322;2024-01-15T14:05:56;98082.25;;;2.21;85.11
13241;BME280;6687;47.790;7.322;2024-01-15T14:08:23;98074.94;;;1.96;85.20
13241;BME280;6687;47.790;7.322;2024-01-15T14:10:50;98083.41;;;1.94;86.00
13241;BME280;6687;47.790;7.322;2024-01-15T14:13:17;98100.44;;;2.33;85.89
13241;BME280;6687;47.790;7.322;2024-01-15T14:15:45;98100.66;;;2.45;85.37
13241;BME280;6687;47.790;7.322;2024-01-15T14:18:14;98103.47;;;2.15;85.86
13241;BME280;6687;47.790;7.322;2024-01-15T14:20:40;98112.03;;;2.18;86.10
13241;BME280;6687;47.790;7.322;2024-01-15T14:23:08;98121.34;;;2.15;86.63
13241;BME280;6687;47.790;7.322;2024-01-15T14:25:34;98128.53;;;1.95;87.75
13241;BME280;6687;47.790;7.322;2024-01-15T14:28:01;98126.16;;;2.03;88.63
13241;BME280;6687;47.790;7.322;2024-01-15T14:30:28;98136.19;;;1.93;88.40
13241;BME280;6687;47.790;7.322;2024-01-15T14:32:56;98141.56;;;2.06;89.21
13241;BME280;6687;47.790;7.322;2024-01-15T14:35:22;98149.91;;;1.97;89.21
13241;BME280;6687;47.790;7.322;2024-01-15T14:37:49;98146.94;;;2.18;88.37
13241;BME280;6687;47.790;7.322;2024-01-15T14:40:16;98142.09;;;2.30;87.97
13241;BME280;6687;47.790;7.322;2024-01-15T14:42:43;98142.81;;;2.25;87.95
13241;BME280;6687;47.790;7.322;2024-01-15T14:45:10;98142.91;;;2.28;87.80
13241;BME280;6687;47.790;7.322;2024-01-15T14:47:38;98139.31;;;2.19;88.42
13241;BME280;6687;47.790;7.322;2024-01-15T14:50:07;98142.25;;;2.38;87.11
13241;BME280;6687;47.790;7.322;2024-01-15T14:52:35;98144.78;;;2.35;87.07
13241;BME280;6687;47.790;7.322;2024-01-15T14:55:02;98153.03;;;2.25;87.20
13241;BME280;6687;47.790;7.322;2024-01-15T14:57:30;98156.03;;;2.45;87.13
13241;BME280;6687;47.790;7.322;2024-01-15T14:59:56;98158.38;;;2.34;87.13
13241;BME280;6687;47.790;7.322;2024-01-15T15:02:23;98150.13;;;2.47;86.83
13241;BME280;6687;47.790;7.322;2024-01-15T15:04:53;98162.81;;;2.43;86.77
13241;BME280;6687;47.790;7.322;2024-01-15T15:07:22;98161.47;;;2.60;87.52
13241;BME280;6687;47.790;7.322;2024-01-15T15:09:49;98161.59;;;2.27;86.93
13241;BME280;6687;47.790;7.322;2024-01-15T15:12:16;98163.47;;;2.34;87.55
13241;BME280;6687;47.790;7.322;2024-01-15T15:14:43;98174.56;;;2.34;87.13
13241;BME280;6687;47.790;7.322;2024-01-15T15:17:10;98175.63;;;2.44;86.72
13241;BME280;6687;47.790;7.322;2024-01-15T15:19:37;98171.88;;;2.28;88.09
13241;BME280;6687;47.790;7.322;2024-01-15T15:22:05;98183.00;;;1.92;89.41
13241;BME280;6687;47.790;7.322;2024-01-15T15:24:33;98180.75;;;2.06;88.47
13241;BME280;6687;47.790;7.322;2024-01-15T15:27:00;98188.28;;;2.00;87.87
13241;BME280;6687;47.790;7.322;2024-01-15T15:29:27;98193.38;;;2.00;88.75
13241;BME280;6687;47.790;7.322;2024-01-15T15:31:54;98193.28;;;1.95;88.05
13241;BME280;6687;47.790;7.322;2024-01-15T15:34:20;98196.25;;;2.14;87.15
13241;BME280;6687;47.790;7.322;2024-01-15T15:36:47;98203.13;;;2.16;87.21
13241;BME280;6687;47.790;7.322;2024-01-15T15:39:14;98206.63;;;1.84;87.62
13241;BME280;6687;47.790;7.322;2024-01-15T15:41:43;98200.78;;;1.88;87.16
13241;BME280;6687;47.790;7.322;2024-01-15T15:44:10;98205.34;;;2.01;86.46
13241;BME280;6687;47.790;7.322;2024-01-15T15:46:38;98210.78;;;1.80;87.11
13241;BME280;6687;47.790;7.322;2024-01-15T15:49:05;98212.03;;;1.96;87.12
13241;BME280;6687;47.790;7.322;2024-01-15T15:51:32;98212.13;;;1.99;86.30
13241;BME280;6687;47.790;7.322;2024-01-15T15:53:59;98215.41;;;1.95;86.00
13241;BME280;6687;47.790;7.322;2024-01-15T15:56:26;98217.00;;;1.90;86.26
13241;BME280;6687;47.790;7.322;2024-01-15T15:58:55;98225.78;;;2.01;86.27
13241;BME280;6687;47.790;7.322;2024-01-15T16:01:22;98240.50;;;2.13;87.06
13241;BME280;6687;47.790;7.322;2024-01-15T16:03:49;98249.03;;;2.12;85.68
13241;BME280;6687;47.790;7.322;2024-01-15T16:06:15;98247.38;;;2.14;84.88
13241;BME280;6687;47.790;7.322;2024-01-15T16:08:42;98258.19;;;2.40;85.13
13241;BME280;6687;47.790;7.322;2024-01-15T16:11:09;98253.28;;;2.49;84.90
13241;BME280;6687;47.790;7.322;2024-01-15T16:13:36;98255.63;;;2.40;85.07
13241;BME280;6687;47.790;7.322;2024-01-15T16:16:04;98267.88;;;2.53;85.51
13241;BME280;6687;47.790;7.322;2024-01-15T16:18:31;98263.88;;;2.65;84.66
13241;BME280;6687;47.790;7.322;2024-01-15T16:20:58;98266.22;;;2.55;85.18
13241;BME280;6687;47.790;7.322;2024-01-15T16:23:24;98261.78;;;2.48;84.61
13241;BME280;6687;47.790;7.322;2024-01-15T16:25:51;98256.50;;;2.80;85.26
13241;BME280;6687;47.790;7.322;2024-01-15T16:28:18;98263.75;;;2.60;84.88
13241;BME280;6687;47.790;7.322;2024-01-15T16:30:44;98268.09;;;2.63;84.83
13241;BME280;6687;47.790;7.322;2024-01-15T16:33:13;98262.09;;;2.62;84.95
13241;BME280;6687;47.790;7.322;2024-01-15T16:35:39;98269.03;;;2.68;85.46
13241;BME280;6687;47.790;7.322;2024-01-15T16:38:06;98272.81;;;2.46;84.81
13241;BME280;6687;47.790;7.322;2024-01-15T16:40:33;98268.75;;;2.55;85.21
13241;BME280;6687;47.790;7.322;2024-01-15T16:43:00;98276.56;;;2.62;84.61
13241;BME280;6687;47.790;7.322;2024-01-15T16:45:26;98278.38;;;2.66;85.03
13241;BME280;6687;47.790;7.322;2024-01-15T16:47:53;98277.59;;;2.70;84.87
13241;BME280;6687;47.790;7.322;2024-01-15T16:50:21;98285.41;;;2.76;85.13
13241;BME280;6687;47.790;7.322;2024-01-15T16:52:48;98285.75;;;2.91;84.95
13241;BME280;6687;47.790;7.322;2024-01-15T16:55:14;98295.03;;;2.88;84.37
13241;BME280;6687;47.790;7.322;2024-01-15T16:57:42;98298.19;;;2.76;84.18
13241;BME280;6687;47.790;7.322;2024-01-15T17:00:10;98299.56;;;2.99;84.87
13241;BME280;6687;47.790;7.322;2024-01-15T17:02:36;98300.88;;;2.82;83.91
13241;BME280;6687;47.790;7.322;2024-01-15T17:05:04;98303.72;;;2.56;84.03
13241;BME280;6687;47.790;7.322;2024-01-15T17:07:32;98311.59;;;2.28;84.86
13241;BME280;6687;47.790;7.322;2024-01-15T17:09:59;98311.34;;;2.18;84.48
13241;BME280;6687;47.790;7.322;2024-01-15T17:12:25;98309.41;;;2.08;85.82
13241;BME280;6687;47.790;7.322;2024-01-15T17:14:52;98312.00;;;1.76;84.87
13241;BME280;6687;47.790;7.322;2024-01-15T17:17:19;98317.41;;;1.89;84.64
13241;BME280;6687;47.790;7.322;2024-01-15T17:19:46;98312.09;;;1.79;85.68
13241;BME280;6687;47.790;7.322;2024-01-15T17:22:13;98322.00;;;1.67;84.87
13241;BME280;6687;47.790;7.322;2024-01-15T17:24:41;98324.13;;;1.52;84.44
13241;BME280;6687;47.790;7.322;2024-01-15T17:27:08;98325.25;;;1.63;84.21
13241;BME280;6687;47.790;7.322;2024-01-15T17:29:34;98328.84;;;1.70;83.85
13241;BME280;6687;47.790;7.322;2024-01-15T17:32:01;98326.69;;;1.52;84.02
13241;BME280;6687;47.790;7.322;2024-01-15T17:34:28;98338.84;;;1.62;83.88
13241;BME280;6687;47.790;7.322;2024-01-15T17:36:55;98335.81;;;1.44;84.63
13241;BME280;6687;47.790;7.322;2024-01-15T17:39:21;98346.19;;;1.50;83.80
13241;BME280;6687;47.790;7.322;2024-01-15T17:41:49;98360.81;;;1.55;83.27
13241;BME280;6687;47.790;7.322;2024-01-15T17:44:16;98360.44;;;2.05;83.43
13241;BME280;6687;47.790;7.322;2024-01-15T17:46:43;98372.78;;;2.22;83.04
13241;BME280;6687;47.790;7.322;2024-01-15T17:49:10;98375.59;;;2.32;82.13
13241;BME280;6687;47.790;7.322;2024-01-15T17:51:36;98380.59;;;2.28;82.62
13241;BME280;6687;47.790;7.322;2024-01-15T17:54:03;98382.13;;;2.21;82.54
13241;BME280;6687;47.790;7.322;2024-01-15T17:56:34;98392.72;;;2.35;80.89
13241;BME280;6687;47.790;7.322;2024-01-15T17:59:02;98395.09;;;2.29;79.72
13241;BME280;6687;47.790;7.322;2024-01-15T18:01:28;98389.50;;;2.10;79.31
13241;BME280;6687;47.790;7.322;2024-01-15T18:03:56;98394.94;;;2.23;78.34
13241;BME280;6687;47.790;7.322;2024-01-15T18:06:24;98399.16;;;1.89;77.90
13241;BME280;6687;47.790;7.322;2024-01-15T18:08:51;98399.97;;;1.56;78.29
13241;BME280;6687;47.790;7.322;2024-01-15T18:11:18;98399.78;;;1.50;78.66
13241;BME280;6687;47.790;7.322;2024-01-15T18:13:45;98397.38;;;1.54;78.58
13241;BME280;6687;47.790;7.322;2024-01-15T18:16:13;98413.19;;;1.43;77.81
13241;BME280;6687;47.790;7.322;2024-01-15T18:18:40;98401.50;;;1.51;78.55
13241;BME280;6687;47.790;7.322;2024-01-15T18:21:07;98412.28;;;1.41;78.79
13241;BME280;6687;47.790;7.322;2024-01-15T18:23:33;98412.06;;;1.63;78.35
13241;BME280;6687;47.790;7.322;2024-01-15T18:26:00;98418.94;;;1.96;77.23
13241;BME280;6687;47.790;7.322;2024-01-15T18:28:28;98424.22;;;2.02;76.79
13241;BME280;6687;47.790;7.322;2024-01-15T18:30:54;98432.56;;;2.28;77.60
13241;BME280;6687;47.790;7.322;2024-01-15T18:33:22;98439.78;;;2.43;79.89
13241;BME280;6687;47.790;7.322;2024-01-15T18:35:49;98445.38;;;2.30;78.50
13241;BME280;6687;47.790;7.322;2024-01-15T18:38:16;98451.66;;;2.41;78.17
13241;BME280;6687;47.790;7.322;2024-01-15T18:40:42;98455.13;;;2.43;78.68
13241;BME280;6687;47.790;7.322;2024-01-15T18:43:09;98452.66;;;2.14;76.10
13241;BME280;6687;47.790;7.322;2024-01-15T18:45:36;98456.81;;;1.81;74.61
13241;BME280;6687;47.790;7.322;2024-01-15T18:48:03;98468.31;;;1.36;73.16
13241;BME280;6687;47.790;7.322;2024-01-15T18:50:33;98467.97;;;1.25;72.64
13241;BME280;6687;47.790;7.322;2024-01-15T18:52:59;98465.88;;;1.12;72.33
13241;BME280;6687;47.790;7.322;2024-01-15T18:55:26;98463.00;;;1.03;72.19
13241;BME280;6687;47.790;7.322;2024-01-15T18:57:53;98463.44;;;0.89;72.13
13241;BME280;6687;47.790;7.322;2024-01-15T19:00:20;98465.50;;;0.74;72.28
13241;BME280;6687;47.790;7.322;2024-01-15T19:02:49;98469.38;;;0.63;72.50
13241;BME280;6687;47.790;7.322;2024-01-15T19:05:16;98465.00;;;0.58;72.31
13241;BME280;6687;47.790;7.322;2024-01-15T19:07:45;98468.88;;;0.47;73.73
13241;BME280;6687;47.790;7.322;2024-01-15T19:10:11;98477.75;;;0.84;71.47
13241;BME280;6687;47.790;7.322;2024-01-15T19:12:38;98480.63;;;1.22;68.90
13241;BME280;6687;47.790;7.322;2024-01-15T19:15:06;98489.88;;;1.46;68.09
13241;BME280;6687;47.790;7.322;2024-01-15T19:17:32;98491.38;;;1.98;69.91
13241;BME280;6687;47.790;7.322;2024-01-15T19:20:00;98498.63;;;2.14;73.11
13241;BME280;6687;47.790;7.322;2024-01-15T19:22:27;98504.91;;;2.26;76.07
13241;BME280;6687;47.790;7.322;2024-01-15T19:24:55;98511.72;;;2.25;75.02
13241;BME280;6687;47.790;7.322;2024-01-15T19:27:21;98508.44;;;1.99;70.27
13241;BME280;6687;47.790;7.322;2024-01-15T19:29:48;98513.63;;;2.02;67.89
13241;BME280;6687;47.790;7.322;2024-01-15T19:32:15;98524.09;;;1.25;65.28
13241;BME280;6687;47.790;7.322;2024-01-15T19:34:42;98524.63;;;1.15;64.59
13241;BME280;6687;47.790;7.322;2024-01-15T19:37:09;98519.78;;;0.70;65.19
13241;BME280;6687;47.790;7.322;2024-01-15T19:39:36;98508.63;;;0.42;65.64
13241;BME280;6687;47.790;7.322;2024-01-15T19:42:05;98510.69;;;0.52;65.85